Forside
METAR-TAF:

METAR-TAF

Lufthavne :

Amman, Jordan

Breddekreds: 31-59N, længdekreds: 035-59E, højde: 767 m

Aktuelle vejr

Denne rapport blev lavet for 1 time og 8 minutter siden, kl. 17:00 UTC
Vind 8 kt fra nordvest
Temperatur 25°C
Fugtighed 54%
Tryk 1011 hPa
Sigt: 5000 m
tåge/dis

METAR: OJAM 141700Z 32008KT 5000 HZ NSC 25/15 Q1011 NOSIG

Tid: 21:08 (18:08 UTC)

Vejrudsigter

Denne rapport blev lavet for 8 minutter siden, kl. 18:00 UTC
Foreløbig gælder fra 14 på 18 UTC til 15 på 24 UTC
Vind 12 kt fra vestnordvest
Sigt: 5000 m
Nogle få skyer i en højde af 3000 ft
tåge/dis
Midlertidig
fra 15 på 12 UTC til 15 på 17 UTC
Vind 18 kt fra nordvest
Sigt: 4000 m
blæsende støv

TAF: OJAM 141800Z 1418/1524 30012KT 5000 HZ FEW030 TEMPO 1512/1517 31018KT 4000 BLDU

Vejrobservationer og prognoser fra mere end 4000 lufthavne (METAR og TAF).

De gule og røde prikker repræsenterer de meteorologiske stationer.

Flyt musen over at se navnet på stationen.

Så klik over at se vejr observationer og prognoser.

At skifte det kort: Klik på de grønne knapper med et sort kors for at zoome ind; på den grønne knap med en bindestreg for at zoome ud; eller på de grønne pile for tilstødende kort.


METAR-TAF: